weather.gov     
National Weather Service

Terminal Aerodrome Forecast
NWS Homepage
This page is being discontinued on March 12, 2014.
The same data is available at this site. Please update your bookmarks.
Thank you, and we apologize for the inconvenience.
Please send an email to SR-SRH.Webmaster@noaa.gov with any concerns.


Current Version
Previous Version:    01  02  03  04  05  06  07  08  09  10  11  12  13  14  15  16  17  18  19  20  21  22  23  24  25  26  27  28  29  30  
   31  32  33  34  35  36  37  38  39  40  41  42  43  44  45  46  47  48  49  50  51  
[Printable]
278
FTUS45 KBOU 182335
TAFAPA
TAF
KAPA 182335Z 1900/1924 26009KT P6SM SCT100 BKN220
     FM190300 21010KT P6SM SCT120 BKN200
     FM190700 24009KT P6SM SCT100 OVC200
     FM191500 04008KT P6SM SCT080 OVC200
     FM191800 09012KT P6SM VCSH SCT060 OVC140
     FM192100 10010KT P6SM VCSH SCT040 OVC100 PROB30 1921/1924
      VRB15G35KT -TSRA BKN050CB=




278
FTUS45 KBOU 182335
TAFAPA
TAF
KAPA 182335Z 1900/1924 26009KT P6SM SCT100 BKN220
     FM190300 21010KT P6SM SCT120 BKN200
     FM190700 24009KT P6SM SCT100 OVC200
     FM191500 04008KT P6SM SCT080 OVC200
     FM191800 09012KT P6SM VCSH SCT060 OVC140
     FM192100 10010KT P6SM VCSH SCT040 OVC100 PROB30 1921/1924
      VRB15G35KT -TSRA BKN050CB=


U.S. Dept. of Commerce
NOAA National Weather Service
1325 East West Highway
Silver Spring, MD 20910
E-mail: w-nws.webmaster@noaa.gov
Page last modified: May 16, 2007
NATIONAL WEATHER SERVICE: for Safety, for Work, for Fun - FOR LIFE